• Join FlightAware (Why Join?)
  • Login
  • US Flag 
11:51AM EDT


 

Airport Tracker/Info


-or-


 

Live Flight TrackerFlight Track Log ✈ N451DS ✈ 23-Jul-2013 ✈ KMEI - KEQY

Flight Track Log - Related Links

Times and Time Zones

All times are in EDT time to prevent confusion due to time zone crossing. See the N451DS flight status page for this flight to view local times or setup timezone preferences in your user account.

Time Position Orientation Groundspeed Altitude Reporting Facility
EDT Latitude Longitude Course Direction KTS MPH feet Rate Location/Type
08:59AM 32.3462 -88.4676 82° East  Level FlightAware Approximate
09:00AM 32.3500 -88.4205 90° East  Level FlightAware Approximate
09:01AM 32.3583 -88.3750 68° East  Level FlightAware Approximate
09:02AM 32.3667 -88.3295 90° East  Level FlightAware Approximate
09:03AM 32.3667 -88.2821 90° East  Level FlightAware Approximate
09:04AM 32.3693 -88.2349 84° East  Level FlightAware Approximate
09:05AM 32.3731 -88.1877 84° East  Level FlightAware Approximate
09:06AM 32.3769 -88.1405 85° East  Level FlightAware Approximate
09:07AM 32.3807 -88.0934 85° East  Level FlightAware Approximate
09:07AM 32.3342 -88.1906 84° East 152 175 9,000  Level Atlanta Center
09:08AM 32.3845 -88.0462 85° East  Level FlightAware Approximate
09:08AM 32.3378 -88.1467 84° East 133 153 9,400  Level Atlanta Center
09:09AM 32.3882 -87.9990 85° East  Level FlightAware Approximate
09:09AM 32.3433 -88.1050 81° East 128 147 9,800  Level Atlanta Center
09:10AM 32.3920 -87.9518 85° East  Level FlightAware Approximate
09:10AM 32.3447 -88.0633 88° East 123 142 10,200  Level Atlanta Center
09:11AM 32.3957 -87.9046 85° East  Level FlightAware Approximate
09:11AM 32.3503 -88.0217 81° East 123 142 10,600  Level Atlanta Center
09:12AM 32.3994 -87.8574 85° East  Level FlightAware Approximate
09:12AM 32.3536 -87.9800 85° East 122 140 11,000  Level Atlanta Center
09:13AM 32.4038 -87.8103 84° East  Level FlightAware Approximate
09:13AM 32.3592 -87.9386 81° East 117 135 11,000  Level Atlanta Center
09:14AM 32.3650 -87.8897 82° East 134 154 11,000  Level Atlanta Center
09:15AM 32.3686 -87.8356 85° East 142 163 11,000  Level Atlanta Center
09:16AM 32.3744 -87.7844 82° East 153 176 11,000  Level Atlanta Center
09:17AM 32.3781 -87.7353 85° East 153 176 11,000  Level Atlanta Center
09:18AM 32.3836 -87.6839 83° East 153 176 11,000  Level Atlanta Center
09:19AM 32.3894 -87.6300 83° East 158 182 11,000  Level Atlanta Center
09:20AM 32.3950 -87.5811 82° East 158 182 11,000  Level Atlanta Center
09:21AM 32.3986 -87.5294 85° East 158 182 11,000  Level Atlanta Center
09:22AM 32.4022 -87.4756 85° East 158 182 11,000  Level Atlanta Center
09:23AM 32.4078 -87.4267 82° East 158 182 11,000  Level Atlanta Center
09:24AM 32.4133 -87.3775 82° East 163 188 11,000  Level Atlanta Center
09:25AM 32.4147 -87.3186 88° East 169 194 11,000  Level Atlanta Center
09:26AM 32.4203 -87.2672 83° East 169 194 11,000  Level Atlanta Center
09:27AM 32.4258 -87.2156 83° East 158 182 11,000  Level Atlanta Center
09:28AM 32.4292 -87.1642 86° East 158 182 11,000  Level Atlanta Center
09:29AM 32.4325 -87.1125 86° East 158 182 11,000  Level Atlanta Center
09:30AM 32.4381 -87.0611 83° East 158 182 11,000  Level Atlanta Center
09:31AM 32.4436 -87.0072 83° East 158 182 11,000  Level Atlanta Center
09:32AM 32.4469 -86.9556 86° East 158 182 11,000  Level Atlanta Center
09:33AM 32.4522 -86.9039 83° East 158 182 11,000  Level Atlanta Center
09:34AM 32.4556 -86.8525 86° East 158 182 11,000  Level Atlanta Center
09:35AM 32.4608 -86.8008 83° East 158 182 11,000  Level Atlanta Center
09:36AM 32.4642 -86.7494 86° East 158 182 11,000  Level Atlanta Center
09:37AM 32.4714 -86.7003 80° East 158 182 11,000 60 Level Atlanta Center
09:38AM 32.4725 -86.6486 89° East 158 182 11,200  Climbing Atlanta Center
09:39AM 32.4778 -86.5994 83° East 153 176 11,100 -120 Descending Atlanta Center
09:40AM 32.4828 -86.5503 83° East 153 176 11,000  Descending Atlanta Center
09:41AM 32.4839 -86.5011 88° East 153 176 11,200 120 Climbing Atlanta Center
09:42AM 32.4914 -86.4422 81° East 153 176 11,300 120 Climbing Atlanta Center
09:43AM 32.4964 -86.3956 83° East 153 176 11,500 240 Climbing Atlanta Center
09:44AM 32.4972 -86.3514 89° East 142 163 11,800 180 Climbing Atlanta Center
09:45AM 32.5022 -86.3022 83° East 142 163 11,900  Climbing Atlanta Center
09:46AM 32.5075 -86.2506 83° East 147 169 11,800 -120 Descending Atlanta Center
09:47AM 32.5125 -86.1942 84° East 158 182 11,700 -60 Descending Atlanta Center
09:48AM 32.5156 -86.1400 86° East 158 182 11,700  Level Atlanta Center
09:49AM 32.5206 -86.0883 83° East 158 182 11,700 -60 Level Atlanta Center
09:50AM 32.5236 -86.0367 86° East 158 182 11,600 -240 Descending Atlanta Center
09:51AM 32.5286 -85.9825 84° East 158 182 11,300 -180 Descending Atlanta Center
09:52AM 32.5317 -85.9286 86° East 158 182 11,300  Level Atlanta Center
09:53AM 32.5367 -85.8769 83° East 158 182 11,300  Level Atlanta Center
09:54AM 32.5414 -85.8228 84° East 158 182 11,300  Level Atlanta Center
09:55AM 32.5442 -85.7736 86° East 158 182 11,400  Climbing Atlanta Center
09:56AM 32.5492 -85.7219 83° East 158 182 11,400  Level Atlanta Center
09:57AM 32.5519 -85.6703 86° East 158 182 11,400 60 Level Atlanta Center
09:58AM 32.5567 -85.6211 83° East 158 182 11,600 -60 Climbing Atlanta Center
09:59AM 32.5594 -85.5669 87° East 158 182 11,300 -240 Descending Atlanta Center
10:00AM 32.5644 -85.5175 83° East 158 182 11,200 -180 Descending Atlanta Center
10:01AM 32.5669 -85.4608 87° East 158 182 11,000 -120 Descending Atlanta Center
10:02AM 32.5717 -85.4117 83° East 158 182 11,000  Level Atlanta Center
10:03AM 32.5744 -85.3600 86° East 158 182 11,000  Level Atlanta Center
10:04AM 32.5792 -85.3108 83° East 158 182 11,000  Level Atlanta Center
10:05AM 32.5839 -85.2592 84° East 158 182 11,000 240 Level Atlanta Center
10:06AM 32.5864 -85.2147 86° East 151 174 11,500 300 Climbing Atlanta Center
10:07AM 32.5908 -85.1728 83° East 139 160 11,600 120 Climbing Atlanta Center
10:08AM 32.5933 -85.1236 87° East 139 160 11,800 120 Climbing Atlanta Center
10:09AM 32.5958 -85.0769 86° East 139 160 11,900 -120 Climbing Atlanta Center
10:10AM 32.6006 -85.0275 84° East 144 166 11,600 -420 Descending Atlanta Center
10:11AM 32.6050 -84.9708 85° East 154 177 11,100 -300 Descending Atlanta Center
10:12AM 32.6075 -84.9167 87° East 159 183 11,000 -60 Descending Atlanta Center
10:13AM 32.6100 -84.8650 87° East 159 183 11,000  Level Atlanta Center
10:14AM 32.6103 -84.8206 90° East 159 183 11,000  Level Atlanta Center
10:15AM 32.6169 -84.7664 82° East 153 176 11,000  Level Atlanta Center
10:16AM 32.6214 -84.7194 84° East 153 176 11,000  Level Atlanta Center
10:17AM 32.6239 -84.6653 87° East 153 176 11,000  Level Atlanta Center
10:18AM 32.6261 -84.6183 87° East 153 176 11,000  Level Atlanta Center
10:19AM 32.6283 -84.5717 87° East 153 176 11,000  Level Atlanta Center
10:20AM 32.6350 -84.5150 82° East 153 176 11,000  Level Atlanta Center
10:21AM 32.6372 -84.4656 87° East 153 176 11,000  Level Atlanta Center
10:22AM 32.6414 -84.4139 85° East 158 182 11,000  Level Atlanta Center
10:23AM 32.6458 -84.3644 84° East 153 176 11,000  Level Atlanta Center
10:24AM 32.6458 -84.3150 90° East 153 176 11,000  Level Atlanta Center
10:25AM 32.6522 -84.2658 81° East 153 176 11,000  Level Atlanta Center
10:26AM 32.6544 -84.2139 87° East 158 182 11,000  Level Atlanta Center
10:27AM 32.6567 -84.1647 87° East 158 182 11,000  Level Atlanta Center
10:28AM 32.6608 -84.1128 85° East 158 182 11,100  Climbing Atlanta Center
10:29AM 32.6628 -84.0586 88° East 153 176 11,100  Level Atlanta Center
10:30AM 32.6672 -84.0117 84° East 153 176 11,100  Level Atlanta Center
10:31AM 32.6711 -83.9575 85° East 158 182 11,100  Level Atlanta Center
10:32AM 32.6733 -83.9056 87° East 158 182 11,100  Level Atlanta Center
10:33AM 32.6775 -83.8586 84° East 153 176 11,100  Level Atlanta Center
10:34AM 32.6814 -83.8069 85° East 153 176 11,100  Level Atlanta Center
10:35AM 32.6833 -83.7575 87° East 153 176 11,100  Level Atlanta Center
10:36AM 32.6856 -83.7081 87° East 153 176 11,100  Level Atlanta Center
10:37AM 32.6894 -83.6611 84° East 148 170 11,100  Level Atlanta Center
10:38AM 32.7103 -83.6242 56° Northeast 133 153 11,100  Level Atlanta Center
10:39AM 32.7353 -83.5894 49° Northeast 133 153 11,100  Level Atlanta Center
10:40AM 32.7600 -83.5497 53° Northeast 133 153 11,100  Level Atlanta Center
10:41AM 32.7850 -83.5150 49° Northeast 133 153 11,100  Level Atlanta Center
10:42AM 32.8078 -83.4803 52° Northeast 133 153 11,100  Level Atlanta Center
10:43AM 32.8306 -83.4431 54° Northeast 133 153 11,100  Level Atlanta Center
10:44AM 32.8553 -83.4083 50° Northeast 133 153 11,100  Level Atlanta Center
10:45AM 32.8844 -83.3758 43° Northeast 133 153 11,100  Level Atlanta Center
10:46AM 32.9072 -83.3411 52° Northeast 133 153 11,100  Level Atlanta Center
10:47AM 32.9278 -83.3064 55° Northeast 133 153 11,100  Level Atlanta Center
10:48AM 32.9528 -83.2739 47° Northeast 133 153 11,100  Level Atlanta Center
10:49AM 32.9775 -83.2342 53° Northeast 133 153 11,100  Level Atlanta Center
10:50AM 33.0025 -83.1992 50° Northeast 133 153 11,100  Level Atlanta Center
10:51AM 33.0250 -83.1617 54° Northeast 133 153 11,100  Level Atlanta Center
10:52AM 33.0497 -83.1267 50° Northeast 133 153 11,100 -60 Level Atlanta Center
10:53AM 33.0767 -83.0894 49° Northeast 133 153 11,000 -60 Descending Atlanta Center
10:54AM 33.0994 -83.0569 50° Northeast 128 147 11,000  Level Atlanta Center
10:55AM 33.1242 -83.0219 50° Northeast 139 160 11,000  Level Atlanta Center
10:56AM 33.1531 -82.9819 49° Northeast 139 160 11,000  Level Atlanta Center
10:57AM 33.1758 -82.9467 52° Northeast 134 154 11,000  Level Atlanta Center
10:58AM 33.1983 -82.9092 54° Northeast 135 155 11,000  Level Atlanta Center
10:59AM 33.2231 -82.8742 50° Northeast 141 162 11,000  Level Atlanta Center
11:00AM 33.2497 -82.8342 51° Northeast 141 162 11,000  Level Atlanta Center
11:01AM 33.2767 -82.7964 50° Northeast 136 157 11,000  Level Atlanta Center
11:02AM 33.3014 -82.7614 50° Northeast 136 157 11,000  Level Atlanta Center
11:03AM 33.3219 -82.7311 51° Northeast 136 157 11,000  Level Atlanta Center
11:04AM 33.3464 -82.6936 52° Northeast 136 157 11,000  Level Atlanta Center
11:05AM 33.3731 -82.6558 50° Northeast 136 157 11,000  Level Atlanta Center
11:06AM 33.4019 -82.6156 49° Northeast 136 157 11,000  Level Atlanta Center
11:07AM 33.4264 -82.5753 54° Northeast 136 157 11,000  Level Atlanta Center
11:08AM 33.4533 -82.5400 48° Northeast 136 157 11,000  Level Atlanta Center
11:09AM 33.4778 -82.4997 54° Northeast 136 157 11,000  Level Atlanta Center
11:10AM 33.5044 -82.4617 50° Northeast 136 157 11,000  Level Atlanta Center
11:11AM 33.5311 -82.4264 48° Northeast 136 157 11,000  Level Atlanta Center
11:12AM 33.5536 -82.3861 56° Northeast 136 157 11,000  Level Atlanta Center
11:13AM 33.5781 -82.3483 52° Northeast 141 162 11,000  Level Atlanta Center
11:14AM 33.6047 -82.3128 48° Northeast 146 168 11,000  Level Atlanta Center
11:15AM 33.6292 -82.2725 54° Northeast 146 168 11,000  Level Atlanta Center
11:16AM 33.6558 -82.2344 50° Northeast 141 162 11,000  Level Atlanta Center
11:17AM 33.6822 -82.1989 48° Northeast 141 162 11,000  Level Atlanta Center
11:18AM 33.7089 -82.1633 48° Northeast 135 155 11,000  Level Atlanta Center
11:19AM 33.7444 -82.1600 North 118 136 11,000  Level Atlanta Center
11:20AM 33.7800 -82.1619 357° North 118 136 11,000  Level Atlanta Center
11:21AM 33.8153 -82.1611 North 124 143 11,000  Level Atlanta Center
11:22AM 33.8508 -82.1628 358° North 124 143 11,000  Level Atlanta Center
11:23AM 33.8906 -82.1594 North 124 143 11,000  Level Atlanta Center
11:24AM 33.9258 -82.1586 North 124 143 11,000  Level Atlanta Center
11:25AM 33.9614 -82.1603 358° North 124 143 11,000  Level Atlanta Center
11:26AM 33.9969 -82.1594 North 124 143 11,000  Level Atlanta Center
11:27AM 34.0325 -82.1589 North 124 143 11,000  Level Atlanta Center
11:28AM 34.0700 -82.1581 North 124 143 11,000  Level Atlanta Center
11:29AM 34.1056 -82.1572 North 124 143 11,000  Level Atlanta Center
11:30AM 34.1383 -82.1339 31° Northeast 124 143 11,000  Level Atlanta Center
11:31AM 34.1692 -82.1031 40° Northeast 129 148 11,000  Level Atlanta Center
11:32AM 34.2000 -82.0722 40° Northeast 140 161 11,000  Level Atlanta Center
11:33AM 34.2308 -82.0439 37° Northeast 140 161 11,000  Level Atlanta Center
11:34AM 34.2617 -82.0106 42° Northeast 140 161 11,000  Level Atlanta Center
11:35AM 34.2925 -81.9819 37° Northeast 140 161 11,000  Level Atlanta Center
11:36AM 34.3211 -81.9511 42° Northeast 135 155 11,000  Level Atlanta Center
11:37AM 34.3519 -81.9203 40° Northeast 135 155 11,000  Level Atlanta Center
11:38AM 34.3828 -81.8917 37° Northeast 135 155 11,000  Level Atlanta Center
11:39AM 34.4136 -81.8608 40° Northeast 135 155 11,000  Level Atlanta Center
11:40AM 34.4403 -81.8350 39° Northeast 135 155 11,000  Level Atlanta Center
11:41AM 34.4711 -81.8039 40° Northeast 135 155 11,000  Level Atlanta Center
11:42AM 34.5017 -81.7753 38° Northeast 135 155 11,000  Level Atlanta Center
11:43AM 34.5325 -81.7442 40° Northeast 135 155 11,000  Level Atlanta Center
11:44AM 34.5672 -81.7106 39° Northeast 142 163 11,000  Level Atlanta Center
11:45AM 34.5817 -81.6950 42° Northeast 142 163 11,000  Level Atlanta Center
11:46AM 34.6144 -81.6664 36° Northeast 142 163 11,000  Level Atlanta Center
11:47AM 34.6450 -81.6325 42° Northeast 140 161 11,000  Level Atlanta Center
11:48AM 34.6781 -81.6039 35° Northeast 141 162 11,000  Level Atlanta Center
11:49AM 34.7067 -81.5728 42° Northeast 143 165 11,000 -60 Level Atlanta Center
11:50AM 34.7392 -81.5389 41° Northeast 143 165 10,900 -300 Descending Atlanta Center
11:51AM 34.7717 -81.4975 46° Northeast 168 193 10,400 -540 Descending Atlanta Center
11:52AM 34.8044 -81.4561 46° Northeast 172 198 9,800 -660 Descending Atlanta Center
11:53AM 34.8261 -81.4047 63° Northeast 177 204 9,100 -720 Descending Atlanta Center
11:54AM 34.8394 -81.3461 74° East 176 203 8,400 -720 Descending Atlanta Center
11:55AM 34.8528 -81.2900 74° East 166 191 7,700 -720 Descending Atlanta Center
11:56AM 34.8664 -81.2389 72° East 154 177 7,000 -720 Descending Atlanta Center
11:57AM 34.8797 -81.1878 72° East 162 186 6,300 -780 Descending Atlanta Center
11:58AM 34.8931 -81.1317 74° East 166 191 5,500 -840 Descending Atlanta Center
11:59AM 34.9042 -81.0756 76° East 169 194 4,700 -840 Descending Atlanta Center
12:00PM 34.9217 -81.0217 68° East 168 193 3,900 -840 Descending Atlanta Center
12:01PM 34.9328 -80.9656 76° East 169 194 3,100 -840 Descending Atlanta Center